createdAt,value
2016-06-16T00:00:10.318Z,999.35
2016-06-16T00:01:10.338Z,999.31
2016-06-16T00:02:10.372Z,999.32
2016-06-16T00:03:10.391Z,999.35
2016-06-16T00:04:10.424Z,999.31
2016-06-16T00:05:10.443Z,999.32
2016-06-16T00:06:10.462Z,999.29
2016-06-16T00:07:10.497Z,999.37
2016-06-16T00:08:10.515Z,999.35
2016-06-16T00:09:10.549Z,999.32
2016-06-16T00:10:10.568Z,999.33
2016-06-16T00:11:10.587Z,999.35
2016-06-16T00:12:10.621Z,999.33
2016-06-16T00:13:10.672Z,999.3
2016-06-16T00:14:10.674Z,999.32
2016-06-16T00:15:10.708Z,999.32
2016-06-16T00:16:10.712Z,999.36
2016-06-16T00:17:10.746Z,999.34
2016-06-16T00:18:10.764Z,999.38
2016-06-16T00:19:10.799Z,999.37
2016-06-16T00:20:10.818Z,999.35
2016-06-16T00:21:10.852Z,999.37
2016-06-16T00:22:10.886Z,999.36
2016-06-16T00:23:10.889Z,999.35
2016-06-16T00:24:10.924Z,999.34
2016-06-16T00:25:11.755Z,999.37
2016-06-16T00:26:10.976Z,999.31
2016-06-16T00:27:10.995Z,999.32
2016-06-16T00:28:11.029Z,999.33
2016-06-16T00:29:11.048Z,999.31
2016-06-16T00:30:11.083Z,999.3
2016-06-16T00:31:11.102Z,999.33
2016-06-16T00:32:11.120Z,999.3
2016-06-16T00:33:11.154Z,999.32
2016-06-16T00:34:11.173Z,999.31
2016-06-16T00:35:11.192Z,999.3
2016-06-16T00:36:11.226Z,999.37
2016-06-16T00:37:11.245Z,999.35
2016-06-16T00:38:11.279Z,999.33
2016-06-16T00:39:11.298Z,999.35
2016-06-16T00:40:11.332Z,999.36
2016-06-16T00:41:11.352Z,999.35
2016-06-16T00:42:11.369Z,999.31
2016-06-16T00:43:11.403Z,999.31
2016-06-16T00:44:11.423Z,999.32
2016-06-16T00:45:11.457Z,999.31
2016-06-16T00:46:11.475Z,999.35
2016-06-16T00:47:11.495Z,999.34
2016-06-16T00:48:11.529Z,999.36
2016-06-16T00:49:11.563Z,999.33
2016-06-16T00:50:11.582Z,999.34
2016-06-16T00:51:11.600Z,999.37
2016-06-16T00:52:11.619Z,999.35
2016-06-16T00:53:11.653Z,999.41
2016-06-16T00:54:11.672Z,999.38
2016-06-16T00:55:11.707Z,999.38
2016-06-16T00:56:11.725Z,999.36
2016-06-16T00:57:11.760Z,999.36
2016-06-16T00:58:11.779Z,999.34
2016-06-16T00:59:11.797Z,999.37
2016-06-16T01:00:11.830Z,999.36
2016-06-16T01:01:11.850Z,999.36
2016-06-16T01:02:11.884Z,999.35
2016-06-16T01:03:11.903Z,999.39
2016-06-16T01:04:11.922Z,999.39
2016-06-16T01:05:11.956Z,999.41
2016-06-16T01:06:11.974Z,999.39
2016-06-16T01:07:12.009Z,999.37
2016-06-16T01:08:12.028Z,999.39
2016-06-16T01:09:12.046Z,999.39
2016-06-16T01:10:12.081Z,999.39
2016-06-16T01:11:12.100Z,999.34
2016-06-16T01:12:12.134Z,999.35
2016-06-16T01:13:12.152Z,999.35
2016-06-16T01:14:12.187Z,999.31
2016-06-16T01:15:12.206Z,999.32
2016-06-16T01:16:12.224Z,999.31
2016-06-16T01:17:12.258Z,999.35
2016-06-16T01:18:12.277Z,999.32
2016-06-16T01:19:12.311Z,999.33
2016-06-16T01:20:12.331Z,999.33
2016-06-16T01:21:12.364Z,999.32
2016-06-16T01:22:12.383Z,999.32
2016-06-16T01:23:12.401Z,999.31
2016-06-16T01:24:12.436Z,999.33
2016-06-16T01:25:12.455Z,999.33
2016-06-16T01:26:12.474Z,999.32
2016-06-16T01:27:12.508Z,999.39
2016-06-16T01:28:12.526Z,999.36
2016-06-16T01:29:12.561Z,999.35
2016-06-16T01:30:12.580Z,999.33
2016-06-16T01:31:12.598Z,999.33
2016-06-16T01:32:12.633Z,999.31
2016-06-16T01:33:12.651Z,999.35
2016-06-16T01:34:12.685Z,999.31
2016-06-16T01:35:12.704Z,999.33
2016-06-16T01:36:12.738Z,999.29
2016-06-16T01:37:12.757Z,999.27
2016-06-16T01:38:12.777Z,999.26
2016-06-16T01:39:12.810Z,999.28
2016-06-16T01:40:12.828Z,999.23
2016-06-16T01:41:12.864Z,999.18
2016-06-16T01:42:12.882Z,999.18
2016-06-16T01:43:12.901Z,999.18
2016-06-16T01:44:12.935Z,999.18
2016-06-16T01:45:12.954Z,999.21
2016-06-16T01:46:12.988Z,999.18
2016-06-16T01:47:13.007Z,999.16
2016-06-16T01:48:13.041Z,999.19
2016-06-16T01:49:13.061Z,999.17
2016-06-16T01:50:13.078Z,999.15
2016-06-16T01:51:13.112Z,999.13
2016-06-16T01:52:13.132Z,999.1
2016-06-16T01:53:13.151Z,999.11
2016-06-16T01:54:13.184Z,999.07
2016-06-16T01:55:13.203Z,999.1
2016-06-16T01:56:13.238Z,999.07
2016-06-16T01:57:13.256Z,999.1
2016-06-16T01:58:13.275Z,999.14
2016-06-16T01:59:13.309Z,999.12
2016-06-16T02:00:13.328Z,999.12
2016-06-16T02:01:13.362Z,999.15
2016-06-16T02:02:13.397Z,999.14
2016-06-16T02:03:13.415Z,999.12
2016-06-16T02:04:13.435Z,999.14
2016-06-16T02:05:13.452Z,999.16
2016-06-16T02:06:13.488Z,999.16
2016-06-16T02:07:13.505Z,999.15
2016-06-16T02:08:13.540Z,999.15
2016-06-16T02:09:13.559Z,999.14
2016-06-16T02:10:13.578Z,999.18
2016-06-16T02:11:14.143Z,999.16
2016-06-16T02:12:13.631Z,999.17
2016-06-16T02:13:13.665Z,999.19
2016-06-16T02:14:13.683Z,999.2
2016-06-16T02:15:13.718Z,999.2
2016-06-16T02:16:13.737Z,999.18
2016-06-16T02:17:13.755Z,999.19
2016-06-16T02:18:13.789Z,999.23
2016-06-16T02:19:13.809Z,999.19
2016-06-16T02:20:13.827Z,999.2
2016-06-16T02:21:13.861Z,999.27
2016-06-16T02:22:13.880Z,999.22
2016-06-16T02:23:13.915Z,999.25
2016-06-16T02:24:13.933Z,999.26
2016-06-16T02:25:13.952Z,999.28
2016-06-16T02:26:14.189Z,999.34
2016-06-16T02:27:14.005Z,999.35
2016-06-16T02:28:14.040Z,999.37
2016-06-16T02:29:14.058Z,999.34
2016-06-16T02:30:14.076Z,999.36
2016-06-16T02:31:14.110Z,999.35
2016-06-16T02:32:14.130Z,999.33
2016-06-16T02:33:14.163Z,999.34
2016-06-16T02:34:14.183Z,999.34
2016-06-16T02:35:14.217Z,999.33
2016-06-16T02:36:14.236Z,999.34
2016-06-16T02:37:14.254Z,999.35
2016-06-16T02:38:14.289Z,999.35
2016-06-16T02:39:14.307Z,999.38
2016-06-16T02:40:14.326Z,999.31
2016-06-16T02:41:14.360Z,999.33
2016-06-16T02:42:14.394Z,999.33
2016-06-16T02:43:14.413Z,999.33
2016-06-16T02:44:14.433Z,999.35
2016-06-16T02:45:14.451Z,999.3
2016-06-16T02:46:14.485Z,999.3
2016-06-16T02:47:14.503Z,999.29
2016-06-16T02:48:14.538Z,999.35
2016-06-16T02:49:14.557Z,999.28
2016-06-16T02:50:14.575Z,999.3
2016-06-16T02:51:14.610Z,999.26
2016-06-16T02:52:14.629Z,999.28
2016-06-16T02:53:14.663Z,999.25
2016-06-16T02:54:14.681Z,999.19
2016-06-16T02:55:14.701Z,999.18
2016-06-16T02:56:14.734Z,999.2
2016-06-16T02:57:14.769Z,999.19
2016-06-16T02:58:14.788Z,999.2
2016-06-16T02:59:14.807Z,999.15
2016-06-16T03:00:14.825Z,999.17
2016-06-16T03:01:14.860Z,999.2
2016-06-16T03:02:14.878Z,999.21
2016-06-16T03:03:14.913Z,999.26
2016-06-16T03:04:14.931Z,999.31
2016-06-16T03:05:14.950Z,999.29
2016-06-16T03:06:14.984Z,999.3
2016-06-16T03:07:15.004Z,999.33
2016-06-16T03:08:15.037Z,999.36
2016-06-16T03:09:15.056Z,999.35
2016-06-16T03:10:15.074Z,999.35
2016-06-16T03:11:15.266Z,999.34
2016-06-16T03:12:15.128Z,999.27
2016-06-16T03:13:15.161Z,999.23
2016-06-16T03:14:15.180Z,999.22
2016-06-16T03:15:15.200Z,999.16
2016-06-16T03:16:15.234Z,999.18
2016-06-16T03:17:15.252Z,999.16
2016-06-16T03:18:15.287Z,999.26
2016-06-16T03:19:15.305Z,999.22
2016-06-16T03:20:15.324Z,999.31
2016-06-16T03:21:15.358Z,999.31
2016-06-16T03:22:15.377Z,999.34
2016-06-16T03:23:15.411Z,999.41
2016-06-16T03:24:15.431Z,999.41
2016-06-16T03:25:15.448Z,999.42
2016-06-16T03:26:16.108Z,999.41
2016-06-16T03:27:15.502Z,999.42
2016-06-16T03:28:15.521Z,999.46
2016-06-16T03:29:15.554Z,999.48
2016-06-16T03:30:15.574Z,999.4
2016-06-16T03:31:15.608Z,999.44
2016-06-16T03:32:15.627Z,999.44
2016-06-16T03:33:15.645Z,999.49
2016-06-16T03:34:15.679Z,999.52
2016-06-16T03:35:15.698Z,999.52
2016-06-16T03:36:15.733Z,999.54
2016-06-16T03:37:15.751Z,999.59
2016-06-16T03:38:15.785Z,999.58
2016-06-16T03:39:15.804Z,999.6
2016-06-16T03:40:15.822Z,999.64
2016-06-16T03:41:15.858Z,999.65
2016-06-16T03:42:15.875Z,999.7
2016-06-16T03:43:15.894Z,999.72
2016-06-16T03:44:15.929Z,999.81
2016-06-16T03:45:15.947Z,999.83
2016-06-16T03:46:15.982Z,999.91
2016-06-16T03:47:16.001Z,999.9
2016-06-16T03:48:16.019Z,999.9
2016-06-16T03:49:16.054Z,999.89
2016-06-16T03:50:16.073Z,999.84
2016-06-16T03:51:16.106Z,999.86
2016-06-16T03:52:16.125Z,999.79
2016-06-16T03:53:16.144Z,999.75
2016-06-16T03:54:16.179Z,999.72
2016-06-16T03:55:16.197Z,999.68
2016-06-16T03:56:16.232Z,999.68
2016-06-16T03:57:16.469Z,999.72
2016-06-16T03:58:16.269Z,999.71
2016-06-16T03:59:16.303Z,999.7
2016-06-16T04:00:16.322Z,999.68
2016-06-16T04:01:16.341Z,999.65
2016-06-16T04:02:16.375Z,999.63
2016-06-16T04:03:16.394Z,999.58
2016-06-16T04:04:16.428Z,999.56
2016-06-16T04:05:16.446Z,999.55
2016-06-16T04:06:16.481Z,999.52
2016-06-16T04:07:16.516Z,999.52
2016-06-16T04:08:16.518Z,999.51
2016-06-16T04:09:16.552Z,999.53
2016-06-16T04:10:16.572Z,999.58
2016-06-16T04:11:17.200Z,999.57
2016-06-16T04:12:16.640Z,999.61
2016-06-16T04:13:16.642Z,999.66
2016-06-16T04:14:16.677Z,999.67
2016-06-16T04:15:16.696Z,999.66
2016-06-16T04:16:16.749Z,999.63
2016-06-16T04:17:16.808Z,999.6
2016-06-16T04:18:16.881Z,999.53
2016-06-16T04:19:16.940Z,999.53
2016-06-16T04:20:16.998Z,999.49
2016-06-16T04:21:17.062Z,999.49
2016-06-16T04:22:17.094Z,999.47
2016-06-16T04:23:17.127Z,999.45
2016-06-16T04:24:17.176Z,999.42
2016-06-16T04:25:17.209Z,999.46
2016-06-16T04:26:17.237Z,999.4
2016-06-16T04:27:17.699Z,999.42
2016-06-16T04:28:17.300Z,999.44
2016-06-16T04:29:17.340Z,999.43
2016-06-16T04:30:17.363Z,999.46
2016-06-16T04:31:17.386Z,999.49
2016-06-16T04:32:17.422Z,999.49
2016-06-16T04:33:17.443Z,999.56
2016-06-16T04:34:17.479Z,999.6
2016-06-16T04:35:17.499Z,999.61
2016-06-16T04:36:17.519Z,999.66
2016-06-16T04:37:17.554Z,999.66
2016-06-16T04:38:17.574Z,999.7
2016-06-16T04:39:17.609Z,999.73
2016-06-16T04:40:17.629Z,999.74
2016-06-16T04:41:17.648Z,999.73
2016-06-16T04:42:18.073Z,999.73
2016-06-16T04:43:17.701Z,999.77
2016-06-16T04:44:17.737Z,999.81
2016-06-16T04:45:17.755Z,999.8
2016-06-16T04:46:17.774Z,999.81
2016-06-16T04:47:17.808Z,999.86
2016-06-16T04:48:17.828Z,999.86
2016-06-16T04:49:17.861Z,999.89
2016-06-16T04:50:17.881Z,999.85
2016-06-16T04:51:17.899Z,999.87
2016-06-16T04:52:17.934Z,999.83
2016-06-16T04:53:17.952Z,999.8
2016-06-16T04:54:17.986Z,999.81
2016-06-16T04:55:18.005Z,999.84
2016-06-16T04:56:18.024Z,999.87
2016-06-16T04:57:18.559Z,999.92
2016-06-16T04:58:18.077Z,999.92
2016-06-16T04:59:18.111Z,999.95
2016-06-16T05:00:18.145Z,999.95
2016-06-16T05:01:18.164Z,999.95
2016-06-16T05:02:18.214Z,1000
2016-06-16T05:03:18.202Z,1000.01
2016-06-16T05:04:18.236Z,1000.04
2016-06-16T05:05:18.269Z,1000.01
2016-06-16T05:06:18.273Z,1000.03
2016-06-16T05:07:18.308Z,1000.03
2016-06-16T05:08:18.373Z,999.98
2016-06-16T05:09:18.361Z,1000.02
2016-06-16T05:10:18.379Z,1000
2016-06-16T05:11:18.413Z,1000.06
2016-06-16T05:12:18.433Z,1000.05
2016-06-16T05:13:18.467Z,1000.02
2016-06-16T05:14:18.486Z,1000
2016-06-16T05:15:18.505Z,1000.02
2016-06-16T05:16:18.538Z,1000.01
2016-06-16T05:17:18.557Z,999.99
2016-06-16T05:18:18.592Z,999.97
2016-06-16T05:19:18.610Z,999.97
2016-06-16T05:20:18.645Z,999.94
2016-06-16T05:21:18.663Z,999.91
2016-06-16T05:22:18.682Z,999.87
2016-06-16T05:23:18.716Z,999.85
2016-06-16T05:24:18.735Z,999.86
2016-06-16T05:25:18.769Z,999.84
2016-06-16T05:26:18.789Z,999.82
2016-06-16T05:27:18.823Z,999.77
2016-06-16T05:28:18.841Z,999.82
2016-06-16T05:29:18.875Z,999.75
2016-06-16T05:30:18.893Z,999.75
2016-06-16T05:31:18.929Z,999.75
2016-06-16T05:32:18.947Z,999.71
2016-06-16T05:33:18.981Z,999.74
2016-06-16T05:34:19.016Z,999.73
2016-06-16T05:35:19.034Z,999.7
2016-06-16T05:36:19.069Z,999.78
2016-06-16T05:37:19.087Z,999.73
2016-06-16T05:38:19.121Z,999.75
2016-06-16T05:39:19.140Z,999.77
2016-06-16T05:40:19.159Z,999.71
2016-06-16T05:41:19.193Z,999.8
2016-06-16T05:42:19.228Z,999.82
2016-06-16T05:43:19.247Z,999.74
2016-06-16T05:44:19.281Z,999.78
2016-06-16T05:45:19.300Z,999.79
2016-06-16T05:46:19.334Z,999.8
2016-06-16T05:47:19.352Z,999.81
2016-06-16T05:48:19.387Z,999.88
2016-06-16T05:49:19.437Z,999.87
2016-06-16T05:50:19.440Z,999.86
2016-06-16T05:51:19.474Z,999.91
2016-06-16T05:52:19.493Z,999.9
2016-06-16T05:53:19.527Z,999.92
2016-06-16T05:54:19.546Z,999.9
2016-06-16T05:55:19.581Z,999.94
2016-06-16T05:56:19.615Z,999.94
2016-06-16T05:57:19.634Z,999.91
2016-06-16T05:58:19.668Z,999.95
2016-06-16T05:59:19.685Z,999.93
2016-06-16T06:00:19.720Z,999.91
2016-06-16T06:01:19.739Z,999.9
2016-06-16T06:02:19.758Z,999.88
2016-06-16T06:03:19.792Z,999.84
2016-06-16T06:04:19.826Z,999.84
2016-06-16T06:05:19.845Z,999.83
2016-06-16T06:06:19.879Z,999.83
2016-06-16T06:07:19.899Z,999.8
2016-06-16T06:08:19.933Z,999.75
2016-06-16T06:09:19.952Z,999.73
2016-06-16T06:10:19.986Z,999.7
2016-06-16T06:11:20.005Z,999.75
2016-06-16T06:12:20.038Z,999.7
2016-06-16T06:13:20.057Z,999.7
2016-06-16T06:14:20.092Z,999.69
2016-06-16T06:15:20.126Z,999.66
2016-06-16T06:16:20.145Z,999.71
2016-06-16T06:17:20.179Z,999.7
2016-06-16T06:18:20.198Z,999.7
2016-06-16T06:19:20.233Z,999.63
2016-06-16T06:20:20.250Z,999.63
2016-06-16T06:21:20.286Z,999.61
2016-06-16T06:22:20.319Z,999.59
2016-06-16T06:23:20.339Z,999.62
2016-06-16T06:24:20.372Z,999.58
2016-06-16T06:25:20.391Z,999.53
2016-06-16T06:26:20.426Z,999.57
2016-06-16T06:27:20.444Z,999.61
2016-06-16T06:28:20.479Z,999.62
2016-06-16T06:29:20.497Z,999.61
2016-06-16T06:30:20.516Z,999.55
2016-06-16T06:31:20.550Z,999.56
2016-06-16T06:32:20.569Z,999.5
2016-06-16T06:33:20.603Z,999.48
2016-06-16T06:34:20.623Z,999.5
2016-06-16T06:35:20.657Z,999.52
2016-06-16T06:36:20.675Z,999.5
2016-06-16T06:37:20.709Z,999.46
2016-06-16T06:38:20.727Z,999.46
2016-06-16T06:39:20.763Z,999.48
2016-06-16T06:40:20.797Z,999.48
2016-06-16T06:41:20.815Z,999.53
2016-06-16T06:42:20.850Z,999.52
2016-06-16T06:43:20.868Z,999.52
2016-06-16T06:44:20.903Z,999.5
2016-06-16T06:45:20.952Z,999.51
2016-06-16T06:46:20.955Z,999.52
2016-06-16T06:47:20.990Z,999.47
2016-06-16T06:48:21.009Z,999.52
2016-06-16T06:49:21.059Z,999.55
2016-06-16T06:50:21.062Z,999.58
2016-06-16T06:51:21.095Z,999.55
2016-06-16T06:52:21.131Z,999.61
2016-06-16T06:53:21.148Z,999.6
2016-06-16T06:54:21.184Z,999.58
2016-06-16T06:55:21.218Z,999.59
2016-06-16T06:56:21.236Z,999.68
2016-06-16T06:57:21.271Z,999.64
2016-06-16T06:58:21.305Z,999.62
2016-06-16T06:59:21.324Z,999.65
2016-06-16T07:00:21.358Z,999.61
2016-06-16T07:01:21.376Z,999.58
2016-06-16T07:02:21.412Z,999.61
2016-06-16T07:03:21.446Z,999.61
2016-06-16T07:04:21.464Z,999.62
2016-06-16T07:05:21.498Z,999.64
2016-06-16T07:06:21.533Z,999.63
2016-06-16T07:07:21.552Z,999.62
2016-06-16T07:08:21.586Z,999.62
2016-06-16T07:09:21.620Z,999.61
2016-06-16T07:10:21.639Z,999.62
2016-06-16T07:11:21.673Z,999.58
2016-06-16T07:12:21.723Z,999.6
2016-06-16T07:13:21.726Z,999.59
2016-06-16T07:14:21.760Z,999.58
2016-06-16T07:15:21.795Z,999.6
2016-06-16T07:16:21.814Z,999.63
2016-06-16T07:17:21.848Z,999.59
2016-06-16T07:18:21.866Z,999.6
2016-06-16T07:19:21.901Z,999.61
2016-06-16T07:20:21.935Z,999.63
2016-06-16T07:21:21.970Z,999.62
2016-06-16T07:22:21.988Z,999.55
2016-06-16T07:23:22.023Z,999.55
2016-06-16T07:24:22.058Z,999.54
2016-06-16T07:25:22.075Z,999.53
2016-06-16T07:26:22.110Z,999.51
2016-06-16T07:27:22.144Z,999.54
2016-06-16T07:28:22.163Z,999.52
2016-06-16T07:29:22.198Z,999.53
2016-06-16T07:30:22.231Z,999.55
2016-06-16T07:31:22.250Z,999.54
2016-06-16T07:32:35.019Z,999.52
2016-06-16T07:33:22.320Z,999.49
2016-06-16T07:34:22.338Z,999.5
2016-06-16T07:48:36.740Z,999.55
2016-06-16T07:48:36.833Z,999.68
2016-06-16T07:48:48.005Z,999.67
2016-06-16T07:49:48.039Z,999.7
2016-06-16T07:50:48.074Z,999.67
2016-06-16T07:51:48.092Z,999.71
2016-06-16T07:52:48.127Z,999.72
2016-06-16T07:53:48.161Z,999.73
2016-06-16T07:54:48.196Z,999.73
2016-06-16T07:55:48.215Z,999.73
2016-06-16T07:56:48.249Z,999.74
2016-06-16T07:57:48.298Z,999.74
2016-06-16T07:58:48.316Z,999.71
2016-06-16T07:59:48.336Z,999.7
2016-06-16T08:00:48.370Z,999.7
2016-06-16T08:01:48.405Z,999.72
2016-06-16T08:02:48.423Z,999.7
2016-06-16T08:03:48.457Z,999.72
2016-06-16T08:04:48.492Z,999.71
2016-06-16T08:05:48.526Z,999.76
2016-06-16T08:06:48.561Z,999.74
2016-06-16T08:07:48.580Z,999.76
2016-06-16T08:08:48.614Z,999.74
2016-06-16T08:09:48.648Z,999.75
2016-06-16T08:10:48.683Z,999.78
2016-06-16T08:11:48.700Z,999.81
2016-06-16T08:12:48.751Z,999.79
2016-06-16T08:13:48.770Z,999.79
2016-06-16T08:14:48.787Z,999.78
2016-06-16T08:15:48.838Z,999.77
2016-06-16T08:16:48.857Z,999.76
2016-06-16T08:17:49.188Z,999.78
2016-06-16T08:18:48.911Z,999.8
2016-06-16T08:19:48.944Z,999.8
2016-06-16T08:20:48.978Z,999.82
2016-06-16T08:21:49.013Z,999.81
2016-06-16T08:22:49.031Z,999.86
2016-06-16T08:23:49.066Z,999.86
2016-06-16T08:24:49.100Z,999.88
2016-06-16T08:25:49.118Z,999.89
2016-06-16T08:26:49.152Z,999.86
2016-06-16T08:27:49.188Z,999.9
2016-06-16T08:28:49.222Z,999.93
2016-06-16T08:29:49.256Z,999.9
2016-06-16T08:30:49.275Z,999.94
2016-06-16T08:31:49.309Z,999.93
2016-06-16T08:32:49.343Z,999.92
2016-06-16T08:33:49.378Z,999.96
2016-06-16T08:34:49.397Z,999.96
2016-06-16T08:35:49.431Z,999.96
2016-06-16T08:36:49.466Z,999.92
2016-06-16T08:37:49.483Z,999.94
2016-06-16T08:38:49.519Z,999.95
2016-06-16T08:39:49.553Z,999.96
2016-06-16T08:40:49.571Z,999.98
2016-06-16T08:41:49.621Z,1000.05
2016-06-16T08:42:49.641Z,1000.02
2016-06-16T08:43:49.675Z,1000
2016-06-16T08:44:49.694Z,1000.05
2016-06-16T08:45:49.744Z,1000.04
2016-06-16T08:46:49.762Z,1000.03
2016-06-16T08:47:49.796Z,1000.07
2016-06-16T08:48:23.550Z,999.97
2016-06-16T08:49:23.568Z,999.97
2016-06-16T08:50:23.603Z,999.98
2016-06-16T08:51:23.652Z,999.98
2016-06-16T08:52:23.671Z,1000
2016-06-16T08:53:23.691Z,999.99
2016-06-16T08:54:23.725Z,999.97
2016-06-16T08:55:23.759Z,999.98
2016-06-16T08:56:23.777Z,999.98
2016-06-16T08:57:23.812Z,999.98
2016-06-16T08:58:23.845Z,1000.01
2016-06-16T08:59:23.865Z,999.96
2016-06-16T09:00:23.899Z,999.99
2016-06-16T09:01:23.933Z,999.99
2016-06-16T09:02:23.968Z,999.97
2016-06-16T09:03:23.986Z,1000.01
2016-06-16T09:04:24.020Z,999.98
2016-06-16T09:05:24.056Z,999.99
2016-06-16T09:06:24.089Z,999.99
2016-06-16T09:07:24.108Z,999.94
2016-06-16T09:08:24.142Z,999.97
2016-06-16T09:09:24.177Z,999.95
2016-06-16T09:10:24.211Z,999.94
2016-06-16T09:11:24.246Z,999.95
2016-06-16T09:12:24.263Z,999.99
2016-06-16T09:13:24.298Z,999.99
2016-06-16T09:14:24.317Z,999.98
2016-06-16T09:15:24.351Z,999.97
2016-06-16T09:16:24.386Z,999.98
2016-06-16T09:17:24.404Z,999.98
2016-06-16T09:18:24.438Z,999.98
2016-06-16T09:19:24.474Z,1000.01
2016-06-16T09:20:24.507Z,1000
2016-06-16T09:21:24.527Z,1000.01
2016-06-16T09:22:24.560Z,1000.02
2016-06-16T09:23:24.594Z,1000.01
2016-06-16T09:24:24.614Z,1000
2016-06-16T09:25:24.648Z,1000.03
2016-06-16T09:26:24.682Z,1000.02
2016-06-16T09:27:24.701Z,999.97
2016-06-16T09:28:24.735Z,999.97
2016-06-16T09:29:24.769Z,999.98
2016-06-16T09:30:24.804Z,999.99
2016-06-16T09:31:24.822Z,999.97
2016-06-16T09:32:24.856Z,999.96
2016-06-16T09:33:24.892Z,1000.02
2016-06-16T09:34:24.925Z,1000.01
2016-06-16T09:35:24.945Z,1000
2016-06-16T09:36:24.979Z,1000
2016-06-16T09:37:25.013Z,999.99
2016-06-16T09:38:25.046Z,1000.03
2016-06-16T09:39:25.066Z,1000.01
2016-06-16T09:40:25.100Z,1000.02
2016-06-16T09:41:25.134Z,999.97
2016-06-16T09:42:25.153Z,999.99
2016-06-16T09:43:25.187Z,1000
2016-06-16T09:44:25.222Z,1000
2016-06-16T09:45:25.256Z,1000
2016-06-16T09:46:25.275Z,999.96
2016-06-16T09:47:25.309Z,999.93
2016-06-16T09:48:25.343Z,999.97
2016-06-16T09:49:25.363Z,999.93
2016-06-16T09:50:25.396Z,999.91
2016-06-16T09:51:25.431Z,999.89
2016-06-16T09:52:25.450Z,999.89
2016-06-16T09:53:25.500Z,999.83
2016-06-16T09:54:25.517Z,999.87
2016-06-16T09:55:25.552Z,999.91
2016-06-16T09:56:25.571Z,999.88
2016-06-16T09:57:25.605Z,999.86
2016-06-16T09:58:25.640Z,999.86
2016-06-16T09:59:25.658Z,999.84
2016-06-16T10:00:25.692Z,999.85
2016-06-16T10:01:25.727Z,999.88
2016-06-16T10:02:25.762Z,999.83
2016-06-16T10:03:25.781Z,999.86
2016-06-16T10:04:25.815Z,999.84
2016-06-16T10:05:25.849Z,999.82
2016-06-16T10:06:25.868Z,999.81
2016-06-16T10:07:25.901Z,999.76
2016-06-16T10:08:25.936Z,999.76
2016-06-16T10:09:25.970Z,999.76
2016-06-16T10:10:25.989Z,999.77
2016-06-16T10:11:26.023Z,999.77
2016-06-16T10:12:26.058Z,999.76
2016-06-16T10:13:26.092Z,999.76
2016-06-16T10:14:26.111Z,999.78
2016-06-16T10:15:26.146Z,999.78
2016-06-16T10:16:26.179Z,999.79
2016-06-16T10:17:26.214Z,999.77
2016-06-16T10:18:26.232Z,999.79
2016-06-16T10:19:26.267Z,999.78
2016-06-16T10:20:26.286Z,999.81
2016-06-16T10:21:26.320Z,999.78
2016-06-16T10:22:26.354Z,999.78
2016-06-16T10:23:26.373Z,999.81
2016-06-16T10:24:26.407Z,999.81
2016-06-16T10:25:26.457Z,999.77
2016-06-16T10:26:26.476Z,999.75
2016-06-16T10:27:26.495Z,999.77
2016-06-16T10:28:26.528Z,999.8
2016-06-16T10:29:26.564Z,999.78
2016-06-16T10:30:26.598Z,999.77
2016-06-16T10:31:26.617Z,999.78
2016-06-16T10:32:26.651Z,999.75
2016-06-16T10:33:26.685Z,999.76
2016-06-16T10:34:26.703Z,999.74
2016-06-16T10:35:26.738Z,999.72
2016-06-16T10:36:26.772Z,999.76
2016-06-16T10:37:26.806Z,999.77
2016-06-16T10:38:26.825Z,999.76
2016-06-16T10:39:26.859Z,999.77
2016-06-16T10:40:26.879Z,999.78
2016-06-16T10:41:26.912Z,999.78
2016-06-16T10:42:26.946Z,999.79
2016-06-16T10:43:26.981Z,999.81
2016-06-16T10:44:27.016Z,999.82
2016-06-16T10:45:27.035Z,999.77
2016-06-16T10:46:27.069Z,999.75
2016-06-16T10:47:27.087Z,999.78
2016-06-16T10:48:27.122Z,999.79
2016-06-16T10:49:27.156Z,999.81
2016-06-16T10:50:27.175Z,999.79
2016-06-16T10:51:27.209Z,999.79
2016-06-16T10:52:27.274Z,999.78
2016-06-16T10:53:27.277Z,999.78
2016-06-16T10:54:27.297Z,999.79
2016-06-16T10:55:27.330Z,999.76
2016-06-16T10:56:27.365Z,999.76
2016-06-16T10:57:27.400Z,999.75
2016-06-16T10:58:27.418Z,999.78
2016-06-16T10:59:27.452Z,999.76
2016-06-16T11:00:27.487Z,999.74
2016-06-16T11:01:27.505Z,999.73
2016-06-16T11:02:27.540Z,999.74
2016-06-16T11:03:27.575Z,999.71
2016-06-16T11:04:27.593Z,999.71
2016-06-16T11:07:42.821Z,999.69
2016-06-16T11:09:45.936Z,999.67
2016-06-16T11:10:45.971Z,999.65
2016-06-16T11:11:46.005Z,999.67
2016-06-16T11:13:46.074Z,999.67
2016-06-16T11:14:46.093Z,999.61
2016-06-16T11:15:46.111Z,999.64
2016-06-16T11:16:46.177Z,999.6
2016-06-16T11:17:46.180Z,999.59
2016-06-16T11:18:46.214Z,999.58
2016-06-16T11:19:46.233Z,999.61
2016-06-16T11:20:46.268Z,999.55
2016-06-16T11:21:46.286Z,999.58
2016-06-16T11:22:46.321Z,999.6
2016-06-16T11:23:46.339Z,999.59
2016-06-16T11:24:46.374Z,999.54
2016-06-16T11:25:46.408Z,999.54
2016-06-16T11:26:46.425Z,999.53
2016-06-16T11:27:46.461Z,999.5
2016-06-16T11:28:46.526Z,999.58
2016-06-16T11:29:46.529Z,999.59
2016-06-16T11:30:46.548Z,999.57
2016-06-16T11:31:46.582Z,999.55
2016-06-16T11:32:46.601Z,999.58
2016-06-16T11:33:46.652Z,999.58
2016-06-16T11:34:46.669Z,999.6
2016-06-16T11:35:46.704Z,999.58
2016-06-16T11:36:46.723Z,999.59
2016-06-16T11:37:46.756Z,999.61
2016-06-16T11:38:46.775Z,999.57
2016-06-16T11:39:46.810Z,999.59
2016-06-16T11:40:46.844Z,999.64
2016-06-16T11:41:46.863Z,999.56
2016-06-16T11:42:46.897Z,999.55
2016-06-16T11:43:46.931Z,999.52
2016-06-16T11:44:46.966Z,999.52
2016-06-16T11:45:46.984Z,999.54
2016-06-16T11:46:47.020Z,999.53
2016-06-16T11:47:47.037Z,999.53
2016-06-16T11:48:47.071Z,999.5
2016-06-16T11:49:47.106Z,999.51
2016-06-16T11:50:47.124Z,999.47
2016-06-16T11:51:47.206Z,999.46
2016-06-16T11:52:47.194Z,999.42
2016-06-16T11:53:47.212Z,999.45
2016-06-16T11:54:47.247Z,999.43
2016-06-16T11:55:47.281Z,999.46
2016-06-16T11:56:47.300Z,999.46
2016-06-16T11:57:47.334Z,999.42
2016-06-16T11:58:47.353Z,999.37
2016-06-16T11:59:47.388Z,999.42
2016-06-16T12:00:47.421Z,999.35
2016-06-16T12:01:47.441Z,999.38
2016-06-16T12:02:47.475Z,999.38
2016-06-16T12:03:47.508Z,999.39
2016-06-16T12:04:47.528Z,999.36
2016-06-16T12:05:47.562Z,999.32
2016-06-16T12:06:47.581Z,999.33
2016-06-16T12:07:47.615Z,999.31
2016-06-16T12:08:47.649Z,999.32
2016-06-16T12:09:47.683Z,999.28
2016-06-16T12:10:47.702Z,999.28
2016-06-16T12:11:47.736Z,999.32
2016-06-16T12:12:47.755Z,999.27
2016-06-16T12:13:47.789Z,999.28
2016-06-16T12:14:47.824Z,999.25
2016-06-16T12:15:47.843Z,999.26
2016-06-16T12:16:47.876Z,999.28
2016-06-16T12:17:47.911Z,999.26
2016-06-16T12:18:47.946Z,999.22
2016-06-16T12:19:47.964Z,999.24
2016-06-16T12:20:47.999Z,999.31
2016-06-16T12:21:48.033Z,999.31
2016-06-16T12:22:48.051Z,999.28
2016-06-16T12:23:48.086Z,999.31
2016-06-16T12:24:48.121Z,999.25
2016-06-16T12:25:48.154Z,999.26
2016-06-16T12:26:48.173Z,999.28
2016-06-16T12:27:48.191Z,999.27
2016-06-16T12:28:48.227Z,999.25
2016-06-16T12:29:48.261Z,999.26
2016-06-16T12:30:48.295Z,999.29
2016-06-16T12:31:48.314Z,999.24
2016-06-16T12:32:48.348Z,999.22
2016-06-16T12:33:48.382Z,999.26
2016-06-16T12:34:48.401Z,999.25
2016-06-16T12:35:48.435Z,999.29
2016-06-16T12:36:48.469Z,999.27
2016-06-16T12:37:48.489Z,999.27
2016-06-16T12:38:48.523Z,999.31
2016-06-16T12:39:48.557Z,999.35
2016-06-16T12:40:48.592Z,999.33
2016-06-16T12:41:48.609Z,999.36
2016-06-16T12:42:48.644Z,999.42
2016-06-16T12:43:48.679Z,999.44
2016-06-16T12:44:48.697Z,999.42
2016-06-16T12:45:48.732Z,999.46